Time;durP1;ratioP1;P1;durP2;ratioP2;P2;SDS_P1;SDS_P2;PMS_P1;PMS_P2;Temp;Humidity;BMP_temperature;BMP_pressure;BME280_temperature;BME280_humidity;BME280_pressure;Samples;Min_cycle;Max_cycle;Signal;HPM_P1;HPM_P2
2021/05/05 00:02:19;;;;;;;;;;;9.40;99.90;;;;;;5015356;28;20430;-80
2021/05/05 00:04:45;;;;;;;;;;;9.30;99.90;;;;;;5015401;28;20372;-80
2021/05/05 00:07:10;;;;;;;;;;;9.30;99.90;;;;;;5033035;28;19904;-80
2021/05/05 00:09:36;;;;;;;;;;;9.30;99.90;;;;;;5015447;28;20253;-80
2021/05/05 00:12:01;;;;;;;;;;;9.30;99.90;;;;;;5015319;28;19958;-80
2021/05/05 00:14:27;;;;;;;;;;;9.20;99.90;;;;;;5015260;28;20356;-80
2021/05/05 00:16:52;;;;;;;;;;;9.30;99.90;;;;;;5016009;28;19905;-80
2021/05/05 00:19:18;;;;;;;;;;;9.20;99.90;;;;;;5015560;28;19944;-79
2021/05/05 00:21:44;;;;;;;;;;;9.20;99.90;;;;;;5015271;28;19909;-80
2021/05/05 00:24:10;;;;;;;;;;;9.20;99.90;;;;;;5015293;28;19940;-80
2021/05/05 00:26:36;;;;;;;;;;;9.10;99.90;;;;;;5015427;28;19905;-80
2021/05/05 00:29:01;;;;;;;;;;;9.20;99.90;;;;;;5015427;28;19912;-80
2021/05/05 00:31:27;;;;;;;;;;;9.20;99.90;;;;;;5015235;28;19905;-80
2021/05/05 00:33:52;;;;;;;;;;;9.10;99.90;;;;;;5032651;28;20261;-80
2021/05/05 00:36:17;;;;;;;;;;;9.10;99.90;;;;;;5015068;28;19916;-80
2021/05/05 00:38:44;;;;;;;;;;;9.10;99.90;;;;;;5015070;28;19912;-80
2021/05/05 00:41:10;;;;;;;;;;;9.10;99.90;;;;;;5015202;28;19905;-80
2021/05/05 00:43:36;;;;;;;;;;;9.10;99.90;;;;;;5014788;28;20008;-80
2021/05/05 00:46:01;;;;;;;;;;;9.10;99.90;;;;;;5014872;28;19952;-80
2021/05/05 00:48:27;;;;;;;;;;;9.20;99.90;;;;;;5014885;28;19911;-80
2021/05/05 00:50:53;;;;;;;;;;;9.20;99.90;;;;;;5014821;28;20368;-80
2021/05/05 00:53:18;;;;;;;;;;;9.20;99.90;;;;;;5035884;28;19912;-80
2021/05/05 00:55:44;;;;;;;;;;;9.20;99.90;;;;;;5036487;28;19963;-79
2021/05/05 00:58:09;;;;;;;;;;;9.00;99.90;;;;;;5019016;28;19912;-80
2021/05/05 01:00:35;;;;;;;;;;;9.00;99.90;;;;;;5019028;28;19912;-80
2021/05/05 01:03:00;;;;;;;;;;;8.90;99.90;;;;;;5018777;28;19912;-80
2021/05/05 01:05:26;;;;;;;;;;;8.90;99.90;;;;;;5018915;28;20340;-80
2021/05/05 01:07:52;;;;;;;;;;;8.80;99.90;;;;;;5018983;28;19905;-80
2021/05/05 01:10:17;;;;;;;;;;;8.80;99.90;;;;;;5036875;28;20370;-80
2021/05/05 01:12:43;;;;;;;;;;;8.80;99.90;;;;;;5036232;28;19988;-80
2021/05/05 01:15:09;;;;;;;;;;;8.80;99.90;;;;;;5018342;28;19999;-80
2021/05/05 01:17:36;;;;;;;;;;;8.80;99.90;;;;;;5018645;28;19905;-80
2021/05/05 01:20:02;;;;;;;;;;;8.80;99.90;;;;;;5036237;28;19905;-80
2021/05/05 01:22:28;;;;;;;;;;;8.80;99.90;;;;;;5018449;28;19979;-80
2021/05/05 01:24:53;;;;;;;;;;;8.80;99.90;;;;;;5018380;28;19955;-80
2021/05/05 01:27:19;;;;;;;;;;;8.80;99.90;;;;;;5018649;28;19905;-80
2021/05/05 01:29:48;;;;;;;;;;;8.80;99.90;;;;;;5018422;28;19905;-79
2021/05/05 01:32:13;;;;;;;;;;;8.80;99.90;;;;;;5018410;28;20375;-80
2021/05/05 01:34:38;;;;;;;;;;;8.90;99.90;;;;;;5035743;28;19955;-80
2021/05/05 01:37:04;;;;;;;;;;;8.80;99.90;;;;;;5018150;28;19954;-79
2021/05/05 01:39:30;;;;;;;;;;;8.80;99.90;;;;;;5018227;28;19912;-80
2021/05/05 01:41:56;;;;;;;;;;;8.80;99.90;;;;;;5018228;28;20268;-80
2021/05/05 01:44:40;;;;;;;;;;;8.80;99.90;;;;;;5018299;28;19940;-80
2021/05/05 01:47:07;;;;;;;;;;;8.80;99.90;;;;;;5018076;28;19909;-80
2021/05/05 01:49:33;;;;;;;;;;;8.80;99.90;;;;;;5017928;28;19905;-80
2021/05/05 01:52:01;;;;;;;;;;;8.70;99.90;;;;;;5017689;28;19912;-79
2021/05/05 01:54:27;;;;;;;;;;;8.60;99.90;;;;;;5035479;28;19909;-79
2021/05/05 01:56:52;;;;;;;;;;;8.60;99.90;;;;;;5017996;28;19911;-80
2021/05/05 01:59:18;;;;;;;;;;;8.60;99.90;;;;;;5017715;28;19905;-80
2021/05/05 02:01:43;;;;;;;;;;;8.60;99.90;;;;;;5017725;28;19936;-79
2021/05/05 02:04:09;;;;;;;;;;;8.50;99.90;;;;;;5016306;28;20348;-80
2021/05/05 02:06:34;;;;;;;;;;;8.50;99.90;;;;;;5017605;28;19905;-79
2021/05/05 02:09:00;;;;;;;;;;;8.40;99.90;;;;;;5017597;28;19905;-80
2021/05/05 02:11:26;;;;;;;;;;;8.40;99.90;;;;;;5017465;28;19905;-80
2021/05/05 02:13:51;;;;;;;;;;;8.40;99.90;;;;;;5017373;28;20011;-80
2021/05/05 02:16:17;;;;;;;;;;;8.40;99.90;;;;;;5017349;28;19913;-80
2021/05/05 02:18:43;;;;;;;;;;;8.40;99.90;;;;;;5035165;28;19905;-80
2021/05/05 02:21:08;;;;;;;;;;;8.40;99.90;;;;;;5017011;28;20352;-79
2021/05/05 02:23:34;;;;;;;;;;;8.40;99.90;;;;;;5017168;28;20039;-80
2021/05/05 02:26:00;;;;;;;;;;;8.40;99.90;;;;;;5035184;28;20364;-80
2021/05/05 02:28:26;;;;;;;;;;;8.40;99.90;;;;;;5017672;28;19936;-80
2021/05/05 02:30:51;;;;;;;;;;;8.40;99.90;;;;;;5034971;28;20276;-80
2021/05/05 02:33:17;;;;;;;;;;;8.40;99.90;;;;;;5016942;28;20422;-80
2021/05/05 02:35:42;;;;;;;;;;;8.30;99.90;;;;;;5034583;28;20329;-80
2021/05/05 02:38:08;;;;;;;;;;;8.20;99.90;;;;;;5017290;28;19952;-80
2021/05/05 02:40:34;;;;;;;;;;;8.20;99.90;;;;;;5017112;28;20356;-79
2021/05/05 02:42:59;;;;;;;;;;;8.20;99.90;;;;;;5016744;28;19905;-79
2021/05/05 02:45:25;;;;;;;;;;;8.20;99.90;;;;;;5016954;28;20249;-80
2021/05/05 02:47:50;;;;;;;;;;;8.30;99.90;;;;;;5016963;28;19909;-79
2021/05/05 02:50:16;;;;;;;;;;;8.30;99.90;;;;;;5016696;28;19913;-80
2021/05/05 02:52:41;;;;;;;;;;;8.40;99.90;;;;;;5016236;28;19905;-80
2021/05/05 02:55:08;;;;;;;;;;;8.40;99.90;;;;;;5016424;28;20003;-80
2021/05/05 02:57:33;;;;;;;;;;;8.40;99.90;;;;;;5034354;28;19909;-80
2021/05/05 02:59:59;;;;;;;;;;;8.30;99.90;;;;;;5016376;28;20371;-80
2021/05/05 03:02:24;;;;;;;;;;;8.20;99.90;;;;;;5016156;28;19952;-80
2021/05/05 03:04:51;;;;;;;;;;;8.20;99.90;;;;;;5016263;28;19916;-80
2021/05/05 03:07:16;;;;;;;;;;;8.20;99.90;;;;;;5016837;28;20341;-80
2021/05/05 03:09:42;;;;;;;;;;;8.20;99.90;;;;;;5016767;28;19905;-80
2021/05/05 03:12:08;;;;;;;;;;;8.10;99.90;;;;;;5034162;28;19905;-80
2021/05/05 03:14:33;;;;;;;;;;;8.10;99.90;;;;;;5033575;28;19960;-80
2021/05/05 03:17:00;;;;;;;;;;;8.00;99.90;;;;;;5016287;28;19911;-80
2021/05/05 03:19:26;;;;;;;;;;;8.10;99.90;;;;;;5016365;28;20338;-79
2021/05/05 03:21:52;;;;;;;;;;;8.20;99.90;;;;;;5016112;28;19905;-79
2021/05/05 03:24:17;;;;;;;;;;;8.20;99.90;;;;;;5016192;28;19912;-79
2021/05/05 03:26:43;;;;;;;;;;;8.20;99.90;;;;;;5016427;28;20264;-79
2021/05/05 03:29:08;;;;;;;;;;;8.20;99.90;;;;;;5016163;28;19955;-79
2021/05/05 03:31:34;;;;;;;;;;;8.10;99.90;;;;;;5033823;28;19905;-79
2021/05/05 03:34:00;;;;;;;;;;;8.20;99.90;;;;;;5033520;28;19905;-79
2021/05/05 03:36:26;;;;;;;;;;;8.10;99.90;;;;;;5016846;28;19952;-79
2021/05/05 03:38:51;;;;;;;;;;;8.00;99.90;;;;;;5016787;28;20071;-80
2021/05/05 03:41:17;;;;;;;;;;;7.90;99.90;;;;;;5016966;28;20248;-79
2021/05/05 03:43:42;;;;;;;;;;;7.80;99.90;;;;;;5015786;28;20016;-80
2021/05/05 03:46:08;;;;;;;;;;;7.80;99.90;;;;;;5033557;28;19905;-80
2021/05/05 03:48:33;;;;;;;;;;;7.80;99.90;;;;;;5017042;28;19955;-79
2021/05/05 03:50:59;;;;;;;;;;;7.90;99.90;;;;;;5018201;28;19964;-80
2021/05/05 03:53:25;;;;;;;;;;;7.90;99.90;;;;;;5017535;28;19966;-80
2021/05/05 03:55:51;;;;;;;;;;;7.90;99.90;;;;;;5015630;28;19908;-80
2021/05/05 03:58:16;;;;;;;;;;;7.90;99.90;;;;;;5019517;28;19909;-79
2021/05/05 04:00:42;;;;;;;;;;;7.90;99.90;;;;;;5015904;28;19959;-80
2021/05/05 04:03:08;;;;;;;;;;;7.80;99.90;;;;;;5017741;28;20379;-80
2021/05/05 04:05:33;;;;;;;;;;;7.80;99.90;;;;;;5016871;28;20353;-80
2021/05/05 04:07:59;;;;;;;;;;;7.80;99.90;;;;;;5017629;28;19905;-80
2021/05/05 04:10:24;;;;;;;;;;;7.80;99.90;;;;;;5017138;28;19905;-80
2021/05/05 04:12:50;;;;;;;;;;;7.80;99.90;;;;;;5015915;28;19912;-80
2021/05/05 04:15:16;;;;;;;;;;;7.80;99.90;;;;;;5014869;28;19939;-79
2021/05/05 04:17:41;;;;;;;;;;;7.80;99.90;;;;;;5032663;28;19909;-79
2021/05/05 04:20:07;;;;;;;;;;;7.90;99.90;;;;;;5015366;28;19959;-80
2021/05/05 04:22:33;;;;;;;;;;;7.90;99.90;;;;;;5015068;28;19916;-80
2021/05/05 04:24:58;;;;;;;;;;;7.90;99.90;;;;;;5015071;28;20348;-79
2021/05/05 04:27:24;;;;;;;;;;;7.90;99.90;;;;;;5032219;28;19911;-79
2021/05/05 04:29:49;;;;;;;;;;;7.90;99.90;;;;;;5015064;28;19905;-79
2021/05/05 04:32:15;;;;;;;;;;;7.90;99.90;;;;;;5014971;28;19999;-79
2021/05/05 04:34:41;;;;;;;;;;;7.80;99.90;;;;;;5032400;28;19948;-79
2021/05/05 04:37:07;;;;;;;;;;;7.80;99.90;;;;;;5032292;28;19917;-80
2021/05/05 04:39:36;;;;;;;;;;;7.80;99.90;;;;;;5014547;28;19967;-80
2021/05/05 04:42:04;;;;;;;;;;;7.80;99.90;;;;;;5014320;28;19932;-80
2021/05/05 04:44:29;;;;;;;;;;;7.90;99.90;;;;;;5011600;28;19968;-79
2021/05/05 04:46:55;;;;;;;;;;;7.90;99.90;;;;;;5013347;28;20466;-79
2021/05/05 04:49:20;;;;;;;;;;;7.90;99.90;;;;;;5012417;28;19909;-80
2021/05/05 04:51:46;;;;;;;;;;;7.90;99.90;;;;;;5012789;28;19920;-79
2021/05/05 04:54:11;;;;;;;;;;;7.80;99.90;;;;;;5013067;28;19905;-79
2021/05/05 04:56:37;;;;;;;;;;;7.90;99.90;;;;;;5031466;28;20387;-79
2021/05/05 04:59:03;;;;;;;;;;;7.80;99.90;;;;;;5013521;28;19913;-79
2021/05/05 05:01:28;;;;;;;;;;;7.70;99.90;;;;;;5013556;28;19912;-79
2021/05/05 05:03:54;;;;;;;;;;;7.70;99.90;;;;;;5013557;28;20276;-79
2021/05/05 05:06:19;;;;;;;;;;;7.80;99.90;;;;;;5013032;28;20039;-79
2021/05/05 05:08:45;;;;;;;;;;;7.80;99.90;;;;;;5013267;28;19916;-79
2021/05/05 05:11:10;;;;;;;;;;;7.90;99.90;;;;;;5013560;28;19909;-79
2021/05/05 05:13:39;;;;;;;;;;;7.90;99.90;;;;;;5013221;28;19913;-79
2021/05/05 05:16:05;;;;;;;;;;;8.00;99.90;;;;;;5013077;28;19913;-79
2021/05/05 05:18:34;;;;;;;;;;;8.10;99.90;;;;;;5014714;28;19909;-81
2021/05/05 05:21:01;;;;;;;;;;;8.30;99.90;;;;;;5013551;28;19912;-80
2021/05/05 05:23:26;;;;;;;;;;;8.50;99.90;;;;;;5030858;28;19909;-79
2021/05/05 05:25:52;;;;;;;;;;;8.80;99.90;;;;;;5013122;28;20364;-80
2021/05/05 05:28:17;;;;;;;;;;;9.30;99.90;;;;;;5013570;28;20004;-79
2021/05/05 05:30:43;;;;;;;0.55;0.50;;;10.00;99.90;;;;;;5013259;28;20339;-78
2021/05/05 05:33:09;;;;;;;1.15;0.63;;;11.20;99.90;;;;;;5029269;28;20026;-79
2021/05/05 05:35:35;;;;;;;;;;;12.30;99.90;;;;;;5030952;28;20053;-80
2021/05/05 05:38:01;;;;;;;5.70;1.00;;;13.70;99.90;;;;;;5014316;28;19932;-80
2021/05/05 05:40:26;;;;;;;1.48;0.65;;;15.40;99.90;;;;;;5033059;28;20022;-80
2021/05/05 05:42:52;;;;;;;2.30;0.65;;;15.80;99.90;;;;;;5016360;28;20457;-80
2021/05/05 05:45:18;;;;;;;4.68;0.80;;;15.00;99.90;;;;;;5032936;28;20029;-80
2021/05/05 05:47:45;;;;;;;1.58;0.45;;;15.70;99.90;;;;;;5032885;28;20029;-80
2021/05/05 05:50:12;;;;;;;0.38;0.38;;;17.20;99.90;;;;;;5036255;28;20112;-80
2021/05/05 05:52:38;;;;;;;;;;;18.00;99.90;;;;;;5033716;28;20540;-79
2021/05/05 05:55:05;;;;;;;1.63;0.77;;;18.10;99.90;;;;;;5020091;28;19913;-81
2021/05/05 05:57:31;;;;;;;2.13;0.90;;;19.10;97.80;;;;;;5036965;28;20039;-80
2021/05/05 05:59:57;;;;;;;3.40;0.60;;;19.10;92.40;;;;;;5035271;28;20021;-80
2021/05/05 06:02:23;;;;;;;3.25;0.77;;;19.30;91.90;;;;;;5041170;28;20445;-80
2021/05/05 06:04:48;;;;;;;2.80;0.77;;;20.30;86.60;;;;;;5023329;28;20099;-80
2021/05/05 06:07:14;;;;;;;7.75;1.38;;;20.80;80.10;;;;;;5020450;28;20018;-80
2021/05/05 06:09:40;;;;;;;2.92;0.85;;;20.30;78.30;;;;;;5014031;28;20042;-80
2021/05/05 06:12:06;;;;;;;0.88;0.45;;;20.60;75.00;;;;;;5032719;28;20021;-79
2021/05/05 06:14:32;;;;;;;1.92;0.65;;;20.60;74.30;;;;;;5016518;28;20026;-80
2021/05/05 06:16:57;;;;;;;1.92;0.60;;;21.40;71.50;;;;;;5017755;28;20493;-80
2021/05/05 06:19:23;;;;;;;2.40;1.27;;;21.10;69.80;;;;;;5038205;28;20091;-80
2021/05/05 06:21:48;;;;;;;3.20;0.77;;;20.90;70.00;;;;;;5036101;28;20092;-78
2021/05/05 06:24:14;;;;;;;1.23;0.52;;;20.90;69.30;;;;;;5034635;28;20029;-79
2021/05/05 06:26:40;;;;;;;0.75;0.40;;;20.80;69.70;;;;;;5034308;28;20025;-79
2021/05/05 06:29:05;;;;;;;2.05;0.93;;;21.30;69.10;;;;;;5033055;28;20444;-79
2021/05/05 06:31:31;;;;;;;3.28;0.80;;;21.80;65.90;;;;;;5015370;28;20497;-79
2021/05/05 06:33:57;;;;;;;1.63;0.57;;;21.50;65.70;;;;;;5028937;28;20033;-79
2021/05/05 06:36:22;;;;;;;3.83;1.08;;;21.20;65.40;;;;;;4999764;28;20072;-80
2021/05/05 06:38:48;;;;;;;1.70;0.82;;;21.50;64.50;;;;;;5019356;28;20030;-79
2021/05/05 06:41:13;;;;;;;2.80;0.50;;;21.40;64.80;;;;;;5000219;28;20052;-79
2021/05/05 06:43:39;;;;;;;4.88;0.77;;;22.20;62.70;;;;;;5000016;28;20018;-80
2021/05/05 06:46:05;;;;;;;2.47;0.57;;;22.20;60.90;;;;;;5000926;28;20030;-80
2021/05/05 06:48:31;;;;;;;2.25;0.57;;;22.40;61.30;;;;;;5001794;28;20033;-79
2021/05/05 06:50:56;;;;;;;1.58;0.73;;;22.00;59.60;;;;;;4998989;28;20032;-79
2021/05/05 06:53:22;;;;;;;1.38;0.52;;;21.40;60.40;;;;;;5001836;28;20026;-79
2021/05/05 06:55:48;;;;;;;2.53;0.82;;;20.90;61.60;;;;;;5021629;28;20153;-79
2021/05/05 06:58:14;;;;;;;1.10;0.60;;;21.40;62.30;;;;;;5006379;28;20018;-80
2021/05/05 07:00:40;;;;;;;2.90;1.08;;;21.60;61.00;;;;;;5007439;28;20022;-82
2021/05/05 07:03:05;;;;;;;0.80;0.43;;;22.20;59.70;;;;;;4998811;28;20025;-81
2021/05/05 07:05:31;;;;;;;4.30;1.00;;;22.20;58.20;;;;;;4999377;28;20026;-81
2021/05/05 07:07:57;;;;;;;1.45;1.00;;;19.90;62.60;;;;;;5016562;28;20084;-80
2021/05/05 07:10:22;;;;;;;4.38;0.73;;;19.60;64.20;;;;;;4998632;28;20029;-80
2021/05/05 07:12:48;;;;;;;1.60;0.63;;;19.40;64.80;;;;;;4995110;28;20022;-79
2021/05/05 07:15:13;;;;;;;1.00;0.52;;;17.80;69.80;;;;;;5013422;28;20507;-79
2021/05/05 07:17:39;;;;;;;6.15;0.80;;;17.20;71.20;;;;;;4996267;28;20534;-79
2021/05/05 07:20:05;;;;;;;;;;;18.60;68.80;;;;;;4995453;28;19940;-80
2021/05/05 07:22:30;;;;;;;0.88;0.55;;;20.60;64.70;;;;;;4995990;28;19945;-81
2021/05/05 07:24:56;;;;;;;0.97;0.60;;;22.90;58.90;;;;;;4996190;28;20487;-81
2021/05/05 07:27:22;;;;;;;2.67;0.82;;;23.00;59.70;;;;;;5013665;28;20287;-80
2021/05/05 07:29:47;;;;;;;1.40;0.60;;;23.20;56.10;;;;;;4995947;28;20025;-80
2021/05/05 07:32:13;;;;;;;0.50;0.30;;;23.10;57.50;;;;;;4995894;28;20030;-80
2021/05/05 07:34:41;;;;;;;2.00;0.70;;;23.50;55.20;;;;;;4995517;28;20061;-80
2021/05/05 07:37:18;;;;;;;0.68;0.40;;;20.70;58.90;;;;;;4995525;28;20448;-80
2021/05/05 07:43:28;;;;;;;2.33;0.60;;;20.60;58.70;;;;;;5013134;28;19917;-79
2021/05/05 07:47:48;;;;;;;;;;;18.90;63.00;;;;;;5020731;28;20039;-79
2021/05/05 07:50:14;;;;;;;;;;;17.70;64.70;;;;;;5015581;28;19912;-79
2021/05/05 07:52:40;;;;;;;;;;;15.70;68.70;;;;;;5033238;28;19905;-79
2021/05/05 07:55:07;;;;;;;;;;;16.20;71.20;;;;;;5015776;28;20280;-79
2021/05/05 07:57:32;;;;;;;;;;;19.10;64.40;;;;;;5014861;28;19956;-78
2021/05/05 07:59:58;;;;;;;;;;;20.60;60.80;;;;;;5020213;28;19905;-79
2021/05/05 08:02:24;;;;;;;;;;;21.20;58.50;;;;;;5016264;28;19964;-80
2021/05/05 08:04:50;;;;;;;2.00;0.77;;;21.50;58.90;;;;;;5033377;28;19909;-81
2021/05/05 08:07:20;;;;;;;4.90;0.70;;;22.10;56.10;;;;;;5015587;28;20113;-80
2021/05/05 08:09:46;;;;;;;3.25;0.85;;;22.90;54.80;;;;;;5014637;28;20293;-80
2021/05/05 08:12:12;;;;;;;0.75;0.52;;;23.60;53.30;;;;;;5022038;28;20032;-79
2021/05/05 08:14:39;;;;;;;0.43;0.40;;;22.80;53.40;;;;;;5034200;28;20091;-80
2021/05/05 08:17:05;;;;;;;3.75;0.57;;;21.70;56.10;;;;;;5019060;28;20120;-79
2021/05/05 08:19:31;;;;;;;0.53;0.40;;;21.60;55.00;;;;;;5035744;28;20026;-80
2021/05/05 08:21:56;;;;;;;;;;;20.90;56.20;;;;;;5018970;28;20068;-81
2021/05/05 08:24:22;;;;;;;;;;;22.00;55.20;;;;;;5015895;28;19963;-79
2021/05/05 08:26:47;;;;;;;2.80;1.00;;;21.50;57.30;;;;;;5017374;28;19967;-80
2021/05/05 08:29:13;;;;;;;1.85;0.70;;;21.70;54.00;;;;;;5017918;28;20066;-79
2021/05/05 08:31:38;;;;;;;;;;;21.40;53.00;;;;;;5016404;28;20116;-80
2021/05/05 08:34:04;;;;;;;0.60;0.57;;;22.10;55.20;;;;;;5015023;28;20033;-79
2021/05/05 08:36:30;;;;;;;1.88;0.60;;;23.50;54.60;;;;;;5036305;28;20485;-81
2021/05/05 08:38:57;;;;;;;;;;;23.00;51.80;;;;;;5034615;28;20025;-79
2021/05/05 08:41:23;;;;;;;6.13;0.82;;;22.20;51.70;;;;;;5015681;28;20276;-79
2021/05/05 08:43:48;;;;;;;;;;;20.50;54.00;;;;;;5013276;28;20021;-83
2021/05/05 08:46:16;;;;;;;;;;;19.60;57.50;;;;;;5014126;28;20423;-80
2021/05/05 08:48:42;;;;;;;1.05;0.45;;;19.80;58.10;;;;;;5013772;28;19905;-79
2021/05/05 08:51:08;;;;;;;;;;;19.70;57.80;;;;;;5014282;28;20029;-80
2021/05/05 08:53:34;;;;;;;;;;;19.80;58.10;;;;;;5013784;28;19909;-79
2021/05/05 08:56:00;;;;;;;4.28;1.27;;;19.50;59.40;;;;;;5018332;28;20291;-81
2021/05/05 08:58:26;;;;;;;;;;;20.80;57.10;;;;;;5013325;28;20025;-80
2021/05/05 09:00:52;;;;;;;;;;;22.10;55.60;;;;;;5013172;28;19913;-78
2021/05/05 09:03:17;;;;;;;1.05;0.50;;;22.60;53.80;;;;;;5012637;28;20395;-80
2021/05/05 09:05:54;;;;;;;1.85;0.90;;;22.70;53.90;;;;;;5030675;28;20030;-80
2021/05/05 09:08:21;;;;;;;1.17;0.60;;;22.80;54.00;;;;;;5013418;28;20034;-79
2021/05/05 09:11:08;;;;;;;2.13;0.90;;;23.60;53.60;;;;;;5014308;28;20094;-79
2021/05/05 09:13:47;;;;;;;2.20;0.57;;;25.40;50.50;;;;;;5015460;28;20132;-80
2021/05/05 09:16:15;;;;;;;6.80;0.60;;;23.40;50.70;;;;;;4998024;28;20057;-82
2021/05/05 09:18:56;;;;;;;3.72;1.08;;;20.30;55.00;;;;;;4998776;28;19932;-81
2021/05/05 09:21:41;;;;;;;;;;;17.20;59.20;;;;;;4998744;28;20041;-80
2021/05/05 09:24:25;;;;;;;;;;;14.80;67.90;;;;;;4997238;28;19944;-80
2021/05/05 09:26:52;;;;;;;;;;;12.50;99.90;;;;;;4999472;28;19906;-81
2021/05/05 09:29:18;;;;;;;;;;;11.10;99.90;;;;;;4999006;28;19952;-81
2021/05/05 09:31:44;;;;;;;;;;;10.80;99.90;;;;;;4999018;28;19906;-81
2021/05/05 09:34:10;;;;;;;;;;;12.20;99.90;;;;;;4998958;28;19912;-80
2021/05/05 09:36:56;;;;;;;;;;;15.30;99.90;;;;;;5005324;28;20288;-79
2021/05/05 09:39:25;;;;;;;;;;;16.50;99.90;;;;;;5015991;28;19960;-79
2021/05/05 09:41:51;;;;;;;;;;;15.10;99.90;;;;;;5035143;28;19905;-79
2021/05/05 09:44:16;;;;;;;;;;;13.60;99.90;;;;;;5017077;28;19955;-80
2021/05/05 09:49:27;;;;;;;;;;;10.80;99.90;;;;;;5035389;28;20108;-79
2021/05/05 09:51:59;;;;;;;;;;;10.20;99.90;;;;;;5018483;28;19905;-79
2021/05/05 09:54:32;;;;;;;;;;;9.90;99.90;;;;;;5017050;28;20362;-79
2021/05/05 09:57:13;;;;;;;;;;;9.50;99.90;;;;;;5017388;28;19944;-80
2021/05/05 09:59:59;;;;;;;;;;;9.40;99.90;;;;;;5018193;28;19955;-81
2021/05/05 10:02:26;;;;;;;;;;;9.20;99.90;;;;;;5007018;28;19905;-79
2021/05/05 10:05:03;;;;;;;;;;;9.20;99.90;;;;;;5017335;28;20273;-80
2021/05/05 10:07:29;;;;;;;;;;;9.90;99.90;;;;;;5017701;28;19905;-80
2021/05/05 10:09:55;;;;;;;;;;;11.10;99.90;;;;;;5017756;28;19935;-80
2021/05/05 10:12:22;;;;;;;;;;;13.00;99.90;;;;;;5018034;28;19990;-81
2021/05/05 10:14:51;;;;;;;;;;;13.40;99.90;;;;;;5017020;28;19999;-81
2021/05/05 10:17:17;;;;;;;;;;;12.50;99.90;;;;;;5035105;28;19913;-81
2021/05/05 10:19:44;;;;;;;;;;;12.00;99.90;;;;;;5017376;28;19987;-79
2021/05/05 10:22:11;;;;;;;;;;;12.10;99.90;;;;;;5018427;28;20295;-79
2021/05/05 10:24:38;;;;;;;;;;;12.80;99.90;;;;;;5033399;28;20280;-80
2021/05/05 10:27:05;;;;;;;;;;;13.50;99.90;;;;;;5020209;28;19909;-80
2021/05/05 10:29:32;;;;;;;;;;;14.20;99.90;;;;;;5017667;28;19905;-80
2021/05/05 10:32:03;;;;;;;;;;;14.90;99.90;;;;;;5001043;28;20008;-79
2021/05/05 10:34:30;;;;;;;;;;;14.50;99.90;;;;;;5014483;28;19906;-80
2021/05/05 10:36:57;;;;;;;;;;;14.80;99.90;;;;;;4996840;28;19937;-79
2021/05/05 10:39:24;;;;;;;;;;;14.90;99.90;;;;;;4997027;28;19905;-79
2021/05/05 10:41:59;;;;;;;;;;;16.80;99.90;;;;;;4996893;28;19992;-80
2021/05/05 10:44:33;;;;;;;;;;;17.40;99.90;;;;;;4996657;28;19913;-77
2021/05/05 10:47:18;;;;;;;;;;;18.10;99.90;;;;;;5000528;28;19912;-80
2021/05/05 10:50:00;;;;;;;;;;;19.20;96.50;;;;;;5021633;28;19937;-79
2021/05/05 10:52:26;;;;;;;;;;;19.10;93.60;;;;;;5002660;28;20507;-79
2021/05/05 10:54:53;;;;;;;;;;;19.70;92.00;;;;;;5004581;28;19909;-80
2021/05/05 10:57:19;;;;;;;;;;;21.00;84.20;;;;;;5005323;28;19963;-80
2021/05/05 10:59:57;;;;;;;0.32;0.20;;;20.80;86.50;;;;;;5004793;28;19917;-80
2021/05/05 11:02:45;;;;;;;2.15;0.25;;;21.00;85.70;;;;;;5004887;28;20030;-80
2021/05/05 11:05:18;;;;;;;0.93;0.30;;;21.60;81.20;;;;;;5004481;28;20029;-79
2021/05/05 11:08:05;;;;;;;0.28;0.28;;;22.00;78.00;;;;;;5005916;28;20444;-80
2021/05/05 11:10:34;;;;;;;0.30;0.30;;;22.20;71.70;;;;;;5004388;28;20500;-80
2021/05/05 11:13:00;;;;;;;0.80;0.30;;;22.50;71.70;;;;;;5004068;28;20030;-80
2021/05/05 11:15:41;;;;;;;0.20;0.20;;;22.40;71.60;;;;;;5019246;28;19924;-80
2021/05/05 11:18:29;;;;;;;;;;;22.20;69.80;;;;;;5001576;28;20502;-80
2021/05/05 11:20:56;;;;;;;;;;;22.40;68.80;;;;;;5018127;28;19912;-81
2021/05/05 11:23:44;;;;;;;0.50;0.50;;;21.90;68.50;;;;;;5036352;28;19955;-81
2021/05/05 11:26:24;;;;;;;0.60;0.30;;;21.10;71.90;;;;;;5036523;28;20086;-79
2021/05/05 11:28:55;;;;;;;;;;;20.10;70.30;;;;;;5038367;28;20479;-80
2021/05/05 11:31:40;;;;;;;1.00;0.45;;;19.10;76.80;;;;;;5022706;28;19916;-78
2021/05/05 11:34:07;;;;;;;;;;;17.80;79.20;;;;;;5015476;28;20029;-78
2021/05/05 11:36:32;;;;;;;;;;;16.70;84.40;;;;;;5015254;28;19909;-79
2021/05/05 11:38:58;;;;;;;;;;;16.10;85.50;;;;;;5033529;28;19912;-79
2021/05/05 11:41:25;;;;;;;;;;;15.40;91.20;;;;;;5014511;28;20015;-79
2021/05/05 11:43:51;;;;;;;;;;;14.80;93.30;;;;;;5002434;28;19905;-79
2021/05/05 11:46:20;;;;;;;;;;;14.10;93.50;;;;;;4996194;28;19917;-79
2021/05/05 11:48:45;;;;;;;;;;;13.10;99.30;;;;;;4996390;28;20284;-79
2021/05/05 11:51:18;;;;;;;;;;;12.30;99.90;;;;;;5013806;28;19905;-79
2021/05/05 11:53:44;;;;;;;;;;;11.70;99.90;;;;;;5013446;28;20365;-79
2021/05/05 11:56:23;;;;;;;;;;;11.10;99.90;;;;;;5013181;28;19909;-79
2021/05/05 11:59:02;;;;;;;;;;;10.60;99.90;;;;;;4998301;28;19986;-79
2021/05/05 12:01:32;;;;;;;;;;;10.20;99.90;;;;;;5015126;28;20368;-79
2021/05/05 12:04:24;;;;;;;;;;;10.90;99.90;;;;;;5014869;28;19909;-77
2021/05/05 12:06:57;;;;;;;;;;;12.40;99.90;;;;;;5030012;28;19905;-80
2021/05/05 12:09:23;;;;;;;;;;;13.60;99.90;;;;;;5015923;28;19912;-81
2021/05/05 12:11:49;;;;;;;;;;;13.90;99.90;;;;;;5015751;28;20280;-80
2021/05/05 12:14:27;;;;;;;;;;;14.20;99.90;;;;;;5015257;28;19905;-80
2021/05/05 12:16:56;;;;;;;;;;;14.30;99.90;;;;;;5032995;28;19909;-80
2021/05/05 12:19:21;;;;;;;;;;;14.00;99.90;;;;;;5015564;28;20039;-80
2021/05/05 12:21:47;;;;;;;;;;;14.20;99.90;;;;;;5015451;28;19947;-80
2021/05/05 12:24:12;;;;;;;;;;;14.40;99.90;;;;;;5033174;28;20344;-80
2021/05/05 12:26:38;;;;;;;;;;;14.10;99.90;;;;;;5015238;28;19905;-80
2021/05/05 12:29:07;;;;;;;;;;;14.10;99.90;;;;;;5015061;28;20328;-79
2021/05/05 12:31:38;;;;;;;;;;;14.10;99.90;;;;;;5015485;28;19916;-80
2021/05/05 12:34:05;;;;;;;;;;;13.80;99.90;;;;;;5015183;28;19905;-80
2021/05/05 12:36:35;;;;;;;;;;;13.90;99.90;;;;;;5003004;28;19909;-80
2021/05/05 12:39:02;;;;;;;;;;;13.80;99.90;;;;;;4996014;28;19956;-80
2021/05/05 12:41:42;;;;;;;;;;;14.10;99.90;;;;;;4996013;28;19972;-81
2021/05/05 12:44:08;;;;;;;;;;;14.50;99.90;;;;;;5007006;28;19909;-80
2021/05/05 12:46:54;;;;;;;;;;;14.90;99.90;;;;;;5015906;28;19915;-79
2021/05/05 12:49:24;;;;;;;;;;;15.00;99.90;;;;;;5015710;28;19907;-80
2021/05/05 12:51:50;;;;;;;;;;;14.90;99.90;;;;;;5015663;28;19913;-80
2021/05/05 12:54:28;;;;;;;;;;;15.40;99.90;;;;;;5015555;28;20035;-79
2021/05/05 12:56:54;;;;;;;;;;;15.60;99.90;;;;;;5033177;28;19909;-80
2021/05/05 12:59:29;;;;;;;;;;;14.70;99.90;;;;;;5015543;28;19959;-80
2021/05/05 13:02:01;;;;;;;;;;;14.20;99.70;;;;;;5015927;28;19955;-80
2021/05/05 13:04:33;;;;;;;;;;;13.60;99.90;;;;;;5015619;28;20074;-80
2021/05/05 13:06:58;;;;;;;;;;;14.30;99.90;;;;;;5015645;28;20258;-80
2021/05/05 13:09:26;;;;;;;;;;;14.50;99.90;;;;;;5015487;28;19909;-80
2021/05/05 13:12:06;;;;;;;;;;;14.70;99.90;;;;;;5015586;28;19905;-80
2021/05/05 13:15:01;;;;;;;;;;;14.80;98.60;;;;;;5015285;28;20004;-80
2021/05/05 13:17:58;;;;;;;0.45;0.40;;;15.30;99.60;;;;;;5033572;28;20432;-80
2021/05/05 13:20:38;;;;;;;0.40;0.40;;;15.20;99.70;;;;;;5014957;28;20488;-80
2021/05/05 13:31:19;;;;;;;2.00;0.47;;;15.40;96.00;;;;;;5032624;28;20111;-79
2021/05/05 13:34:05;;;;;;;2.50;0.40;;;15.30;95.90;;;;;;5015370;28;20045;-81
2021/05/05 13:36:43;;;;;;;;;;;15.00;96.40;;;;;;5024898;28;20013;-81
2021/05/05 13:39:08;;;;;;;;;;;14.60;96.50;;;;;;5035293;28;19942;-80
2021/05/05 13:41:33;;;;;;;;;;;14.70;95.70;;;;;;5035931;28;19905;-81
2021/05/05 13:44:04;;;;;;;;;;;14.30;96.50;;;;;;5035090;28;20382;-79
2021/05/05 13:47:19;;;;;;;;;;;14.40;97.30;;;;;;5041001;28;19912;-81
2021/05/05 13:49:28;;;;;;;;;;;15.10;94.60;;;;;;5044789;28;19927;-80
2021/05/05 13:51:58;;;;;;;;;;;15.20;94.60;;;;;;5041102;28;19895;-80
2021/05/05 13:54:24;;;;;;;;;;;15.70;92.20;;;;;;5037696;28;19905;-81
2021/05/05 13:56:50;;;;;;;;;;;15.80;85.70;;;;;;5050564;23;19928;-80
2021/05/05 13:59:16;;;;;;;;;;;15.30;86.40;;;;;;5035123;28;19996;-80
2021/05/05 14:01:43;;;;;;;;;;;14.50;84.70;;;;;;5037508;28;20267;-79
2021/05/05 14:04:08;;;;;;;;;;;14.10;91.50;;;;;;5034916;28;19909;-80
2021/05/05 14:06:39;;;;;;;;;;;12.60;99.60;;;;;;5035695;28;19999;-80
2021/05/05 14:09:05;;;;;;;;;;;11.70;99.90;;;;;;5034695;28;20370;-80
2021/05/05 14:11:31;;;;;;;;;;;11.50;99.90;;;;;;5034629;28;19911;-80
2021/05/05 14:13:57;;;;;;;;;;;11.20;99.90;;;;;;5035369;28;19983;-80
2021/05/05 14:16:23;;;;;;;;;;;11.30;99.90;;;;;;5034970;28;20215;-80
2021/05/05 14:18:49;;;;;;;1.40;0.55;;;11.80;99.90;;;;;;5035674;28;19909;-80